Latest Weather Observations for McCluer Island

IDD60801

Issued at 8:31 pm CST Monday 6 July 2015 (issued every 30 minutes, with the page automatically refreshed every 10 minutes)

About weather observations | Map of weather stations | Latest weather observations for NT | Other Formats
Station Details ID: 014274 Name: MCCLUER ISLAND Lat: -11.05 Lon: 132.98 Height: 1.4 m
Data from the previous 72 hours. | See also: Recent months at McCluer Island
Date/Time
CST
Temp
°C
App
Temp
°C
Dew
Point
Rel
Hum
%
Delta-T
°C
Wind Press
QNH
hPa
Press
MSL
hPa
Rain
since 9 am
mm
Dir
 
Spd
km/h
Gust
km/h
Spd
kts
Gust
kts
06/08:30pm 25.9 25.3 22.6 82 2.2 E 30 35 16 19 1012.2 - 0.0
06/08:00pm 25.8 24.8 21.9 79 2.6 E 30 35 16 19 1012.1 - 0.0
06/07:30pm 25.9 24.8 22.4 81 2.4 E 32 37 17 20 1011.7 - 0.0
06/07:00pm 25.9 24.8 22.4 81 2.4 E 32 37 17 20 1011.5 - 0.0
06/06:30pm 25.9 24.8 22.4 81 2.4 E 32 37 17 20 1011.3 - 0.0
06/06:00pm 26.1 25.1 22.6 81 2.4 E 32 35 17 19 1011.0 1011.0 0.0
06/05:30pm 26.0 24.7 22.1 79 2.6 E 32 37 17 20 1010.8 - 0.0
06/05:00pm 26.1 25.1 22.6 81 2.4 E 32 35 17 19 1010.6 - 0.0
06/04:30pm 26.2 24.8 22.3 79 2.6 ESE 33 39 18 21 1010.5 - 0.0
06/04:00pm 26.3 24.7 21.5 75 3.2 ESE 32 39 17 21 1010.6 - 0.0
06/03:30pm 26.7 25.4 22.1 76 3.1 E 32 37 17 20 1010.7 - 0.0
06/03:00pm 26.7 25.1 21.5 73 3.5 E 32 37 17 20 1010.9 1010.9 0.0
06/02:30pm 26.5 24.8 21.3 73 3.4 E 32 37 17 20 1011.0 - 0.0
06/02:00pm 26.2 24.4 21.2 74 3.3 E 32 35 17 19 1011.4 - 0.0
06/01:30pm 26.5 24.9 21.5 74 3.3 E 32 35 17 19 1011.8 - 0.0
06/01:00pm 26.3 24.7 21.9 77 2.9 ESE 33 39 18 21 1012.3 - 0.0
06/12:30pm 26.0 23.9 21.7 77 2.9 ESE 35 41 19 22 1012.7 - 0.0
06/12:00pm 26.4 23.9 21.6 75 3.2 ESE 37 44 20 24 1013.0 1013.0 0.0
06/11:30am 26.7 25.4 22.5 78 2.8 ESE 33 39 18 21 1013.1 - 0.0
06/11:00am 26.0 24.3 21.7 77 2.9 ESE 33 39 18 21 1013.4 - 0.0
06/10:30am 26.1 24.6 21.7 77 2.9 ESE 32 37 17 20 1013.7 - 0.0
06/10:00am 25.6 24.4 21.5 78 2.7 ESE 30 35 16 19 1013.8 - 0.0
06/09:30am 25.4 24.2 21.5 79 2.6 ESE 30 37 16 20 1013.8 - 0.0
06/09:00am 25.1 23.9 21.6 81 2.3 ESE 30 35 16 19 1013.5 1013.5 0.0
06/08:30am 25.0 24.0 21.9 83 2.1 ESE 30 35 16 19 1013.4 - 0.0
06/08:00am 25.0 23.1 21.3 80 2.4 ESE 33 37 18 20 1013.2 - 0.0
06/07:30am 24.4 23.4 21.3 83 2.0 ESE 28 35 15 19 1013.0 - 0.0
06/07:00am 24.7 23.0 21.4 82 2.2 ESE 32 37 17 20 1012.6 - 0.0
06/06:30am 24.7 23.5 21.6 83 2.1 ESE 30 35 16 19 1012.5 - 0.0
06/06:00am 25.0 23.4 21.5 81 2.3 E 32 37 17 20 1012.5 1012.5 0.0
06/05:30am 24.5 23.3 21.6 84 1.9 ESE 30 35 16 19 1012.3 - 0.0
06/05:00am 24.7 22.9 21.2 81 2.3 ESE 32 37 17 20 1012.2 - 0.0
06/04:30am 24.7 23.3 21.2 81 2.3 ESE 30 33 16 18 1012.2 - 0.0
06/04:00am 24.6 22.9 20.5 78 2.7 ESE 30 35 16 19 1012.1 - 0.0
06/03:30am 24.7 23.1 20.8 79 2.6 ESE 30 33 16 18 1012.0 - 0.0
06/03:00am 24.9 23.2 20.6 77 2.8 ESE 30 35 16 19 1012.2 1012.2 0.0
06/02:30am 25.1 23.3 21.2 79 2.6 E 32 37 17 20 1012.3 - 0.0
06/02:00am 25.1 23.4 21.4 80 2.4 E 32 35 17 19 1012.3 - 0.0
06/01:30am 25.3 23.5 21.6 80 2.5 E 33 39 18 21 1012.3 - 0.0
06/01:00am 25.3 23.1 21.4 79 2.6 E 35 41 19 22 1012.4 - 0.0
06/12:30am 25.6 23.4 21.5 78 2.7 E 35 41 19 22 1012.5 - 0.0
06/12:00am 25.7 24.1 21.8 79 2.6 E 33 39 18 21 1012.7 1012.7 0.0
 
Date/Time
CST
Temp
°C
App
Temp
°C
Dew
Point
Rel
Hum
%
Delta-T
°C
Wind Press
QNH
hPa
Press
MSL
hPa
Rain
since 9 am
mm
Dir
 
Spd
km/h
Gust
km/h
Spd
kts
Gust
kts
05/11:30pm 25.8 23.9 22.1 80 2.5 E 35 41 19 22 1012.8 - 0.0
05/11:00pm 25.8 23.6 21.5 77 2.9 E 35 41 19 22 1012.9 - 0.0
05/10:30pm 26.0 24.1 22.1 79 2.6 E 35 39 19 21 1013.0 - 0.0
05/10:00pm 25.9 24.5 22.2 80 2.5 E 33 37 18 20 1013.2 - 0.0
05/09:30pm 26.0 24.3 21.4 76 3.1 E 32 35 17 19 1013.2 - 0.0
05/09:00pm 25.9 24.6 21.3 76 3.0 E 30 35 16 19 1013.1 1013.1 0.0
05/08:30pm 26.2 24.9 21.4 75 3.2 E 30 33 16 18 1012.9 - 0.0
05/08:00pm 26.3 24.9 20.4 70 3.9 E 28 33 15 18 1012.6 - 0.0
05/07:30pm 26.1 25.1 21.3 75 3.2 E 28 32 15 17 1012.4 - 0.0
05/07:00pm 26.0 24.9 21.0 74 3.3 E 28 33 15 18 1012.2 - 0.0
05/06:30pm 25.9 24.8 21.1 75 3.2 E 28 33 15 18 1011.9 - 0.0
05/06:00pm 26.0 25.2 21.7 77 2.9 E 28 33 15 18 1011.7 1011.7 0.0
05/05:30pm 26.3 24.4 21.3 74 3.3 E 33 39 18 21 1011.6 - 0.0
05/05:00pm 26.4 24.5 20.9 72 3.6 ESE 32 37 17 20 1011.3 - 0.0
05/04:30pm 26.5 24.7 21.5 74 3.3 E 33 37 18 20 1011.3 - 0.0
05/04:00pm 26.7 25.5 22.3 77 3.0 ESE 32 37 17 20 1011.4 - 0.0
05/03:30pm 26.7 25.4 22.1 76 3.1 ESE 32 39 17 21 1011.5 - 0.0
05/03:00pm 26.9 25.8 22.5 77 3.0 ESE 32 35 17 19 1011.7 1011.7 0.0
05/02:30pm 26.6 25.7 22.2 77 3.0 ESE 30 33 16 18 1012.1 - 0.0
05/02:00pm 26.2 24.9 22.1 78 2.7 ESE 32 37 17 20 1012.4 - 0.0
05/01:30pm 26.0 24.6 22.3 80 2.5 ESE 33 39 18 21 1012.6 - 0.0
05/01:00pm 26.0 25.2 22.3 80 2.5 ESE 30 35 16 19 1012.9 - 0.0
05/12:30pm 25.9 25.0 22.2 80 2.5 ESE 30 35 16 19 1013.3 - 0.0
05/12:00pm 25.7 25.1 22.0 80 2.5 ESE 28 35 15 19 1013.6 1013.6 0.0
05/11:30am 26.1 25.6 22.2 79 2.6 ESE 28 35 15 19 1013.9 - 0.0
05/11:00am 25.7 25.3 21.6 78 2.7 ESE 26 33 14 18 1014.2 - 0.0
05/10:30am 25.4 24.9 21.5 79 2.6 ESE 26 32 14 17 1014.4 - 0.0
05/10:00am 25.5 25.0 21.4 78 2.7 ESE 26 32 14 17 1014.4 - 0.0
05/09:30am 25.5 24.8 21.0 76 3.0 ESE 26 32 14 17 1014.3 - 0.0
05/09:00am 24.9 23.9 21.2 80 2.4 ESE 28 37 15 20 1014.2 1014.2 0.0
05/08:30am 24.2 23.9 21.1 83 2.0 ESE 24 30 13 16 1014.2 - 0.0
05/08:00am 23.8 22.3 20.9 84 1.9 ESE 30 39 16 21 1013.8 - 0.0
05/07:30am 23.7 22.6 21.0 85 1.8 ESE 28 35 15 19 1013.5 - 0.0
05/07:00am 23.4 22.4 20.5 84 1.9 SE 26 35 14 19 1012.8 - 0.0
05/06:30am 23.7 23.5 20.6 83 2.0 SE 22 30 12 16 1013.0 - 0.0
05/06:00am 23.9 23.7 20.6 82 2.2 SE 22 30 12 16 1013.0 1013.0 0.0
05/05:30am 24.3 23.6 20.2 78 2.7 SE 24 32 13 17 1012.8 - 0.0
05/05:00am 24.2 23.4 19.3 74 3.1 SE 22 30 12 16 1012.6 - 0.0
05/04:30am 24.0 21.9 19.7 77 2.8 ESE 30 39 16 21 1012.4 - 0.0
05/04:00am 24.2 22.2 19.9 77 2.8 ESE 30 35 16 19 1012.3 - 0.0
05/03:30am 24.3 21.7 19.8 76 2.9 ESE 33 41 18 22 1012.2 - 0.0
05/03:00am 24.2 22.7 20.3 79 2.5 ESE 28 33 15 18 1012.4 1012.4 0.0
05/02:30am 24.6 22.7 20.1 76 2.9 E 30 35 16 19 1012.7 - 0.0
05/02:00am 24.8 23.4 20.5 77 2.8 E 28 33 15 18 1013.1 - 0.0
05/01:30am 24.8 24.0 20.9 79 2.6 E 26 32 14 17 1013.1 - 0.0
05/01:00am 25.0 24.7 21.1 79 2.6 E 24 28 13 15 1013.2 - 0.0
05/12:30am 25.1 24.6 20.8 77 2.8 E 24 26 13 14 1013.2 - 0.0
05/12:00am 25.2 25.0 20.5 75 3.1 E 22 28 12 15 1013.2 1013.2 0.0
 
Date/Time
CST
Temp
°C
App
Temp
°C
Dew
Point
Rel
Hum
%
Delta-T
°C
Wind Press
QNH
hPa
Press
MSL
hPa
Rain
since 9 am
mm
Dir
 
Spd
km/h
Gust
km/h
Spd
kts
Gust
kts
04/11:30pm 25.4 25.1 20.4 74 3.3 E 22 24 12 13 1013.1 - 0.0
04/11:00pm 25.6 25.5 19.9 70 3.7 ENE 20 26 11 14 1013.1 - 0.0
04/10:30pm 25.6 25.2 19.3 68 4.0 E 20 26 11 14 1013.2 - 0.0
04/10:00pm 25.5 24.8 19.4 69 3.9 E 22 24 12 13 1013.3 - 0.0
04/09:30pm 25.5 24.5 18.9 67 4.2 E 22 26 12 14 1013.1 - 0.0
04/09:00pm 25.6 23.9 19.0 67 4.2 E 26 30 14 16 1013.0 1013.0 0.0
04/08:30pm 25.6 24.7 19.9 70 3.7 E 24 32 13 17 1012.7 - 0.0
04/08:00pm 25.5 23.4 18.9 67 4.2 E 28 32 15 17 1012.3 - 0.0
04/07:30pm 25.3 23.3 19.2 69 3.9 E 28 32 15 17 1012.1 - 0.0
04/07:00pm 25.3 23.7 19.2 69 3.9 E 26 32 14 17 1011.9 - 0.0
04/06:30pm 25.4 23.0 18.3 65 4.5 E 28 32 15 17 1011.7 - 0.0
04/06:00pm 25.5 23.2 17.7 62 4.9 ESE 26 30 14 16 1011.6 1011.6 0.0
04/05:30pm 25.8 23.3 18.0 62 4.9 E 28 32 15 17 1011.3 - 0.0
04/05:00pm 26.2 22.8 16.7 56 5.9 ESE 30 33 16 18 1011.1 - 0.0
04/04:30pm 26.3 23.0 16.0 53 6.3 ESE 28 32 15 17 1011.0 - 0.0
04/04:00pm 26.8 23.3 15.5 50 6.9 ESE 28 33 15 18 1010.8 - 0.0
04/03:30pm 27.1 23.0 14.8 47 7.4 ESE 30 35 16 19 1010.9 - 0.0
04/03:00pm 27.2 23.7 15.6 49 7.1 ESE 28 37 15 20 1011.0 1011.0 0.0
04/02:30pm 27.1 22.9 15.8 50 6.9 ESE 32 37 17 20 1011.4 - 0.0
04/02:00pm 26.2 21.0 14.6 48 6.9 ESE 35 43 19 23 1011.7 - 0.0
04/01:30pm 26.3 20.7 15.4 51 6.6 ESE 39 43 21 23 1012.3 - 0.0
04/01:00pm 26.0 20.1 15.7 53 6.3 ESE 41 48 22 26 1012.9 - 0.0
04/12:30pm 25.8 19.9 15.8 54 6.1 ESE 41 48 22 26 1013.3 - 0.0
04/12:00pm 25.6 20.0 15.6 54 6.1 ESE 39 46 21 25 1013.6 1013.6 0.0
04/11:30am 25.5 20.8 16.9 59 5.3 ESE 37 43 20 23 1014.0 - 0.0
04/11:00am 26.1 21.9 16.1 54 6.1 ESE 33 44 18 24 1014.5 - 0.0
04/10:30am 26.3 21.5 15.7 52 6.5 ESE 35 44 19 24 1014.7 - 0.0
04/10:00am 25.5 20.7 16.6 58 5.5 ESE 37 44 20 24 1014.9 - 0.0
04/09:30am 25.6 22.4 17.3 60 5.2 ESE 30 41 16 22 1014.8 - 0.0
04/09:00am 25.3 22.4 18.0 64 4.6 ESE 30 41 16 22 1014.9 1014.9 0.0
04/08:30am 24.8 22.2 18.7 69 3.9 ESE 30 35 16 19 1014.7 - 0.0
04/08:00am 24.5 21.7 18.2 68 4.0 ESE 30 37 16 20 1014.4 - 0.0
04/07:30am 24.2 22.4 18.8 72 3.4 ESE 26 35 14 19 1014.2 - 0.0
04/07:00am 24.1 20.2 16.4 62 4.7 ESE 32 39 17 21 1013.9 - 0.0
04/06:30am 24.0 21.2 17.3 66 4.2 ESE 28 37 15 20 1013.8 - 0.0
04/06:00am 24.2 19.5 15.9 59 5.0 ESE 35 43 19 23 1013.6 1013.6 0.0
04/05:30am 24.5 20.3 17.2 63 4.5 ESE 35 43 19 23 1013.4 - 0.0
04/05:00am 24.2 19.9 17.9 68 3.9 ESE 37 44 20 24 1013.4 - 0.0
04/04:30am 23.8 20.3 17.8 69 3.7 ESE 33 41 18 22 1013.3 - 0.0
04/04:00am 23.7 20.7 19.0 75 3.0 ESE 33 41 18 22 1013.4 - 0.0
04/03:30am 23.6 20.7 18.9 75 3.0 ESE 32 39 17 21 1013.5 - 0.0
04/03:00am 23.8 21.4 19.1 75 3.0 ESE 30 35 16 19 1013.6 1013.6 0.0
04/02:30am 23.9 20.4 18.8 73 3.2 ESE 35 41 19 22 1013.8 - 0.0
04/02:00am 24.2 20.7 19.5 75 3.0 ESE 37 44 20 24 1013.8 - 0.0
04/01:30am 24.4 20.9 20.3 78 2.7 ESE 39 48 21 26 1013.9 - 0.0
04/01:00am 25.1 22.0 20.4 75 3.1 E 37 50 20 27 1013.8 - 0.0
04/12:30am 25.4 23.1 20.6 75 3.1 E 33 39 18 21 1013.7 - 0.0
04/12:00am 25.5 23.6 20.1 72 3.5 E 30 35 16 19 1013.9 1013.9 0.0
 
Date/Time
CST
Temp
°C
App
Temp
°C
Dew
Point
Rel
Hum
%
Delta-T
°C
Wind Press
QNH
hPa
Press
MSL
hPa
Rain
since 9 am
mm
Dir
 
Spd
km/h
Gust
km/h
Spd
kts
Gust
kts
03/11:30pm 25.8 23.4 20.4 72 3.5 E 33 39 18 21 1013.8 - 0.0
03/11:00pm 25.9 23.8 20.5 72 3.5 E 32 35 17 19 1013.9 - 0.0
03/10:30pm 26.2 25.2 21.2 74 3.3 E 28 33 15 18 1013.9 - 0.0
03/10:00pm 26.1 25.3 20.9 73 3.4 E 26 28 14 15 1013.7 - 0.0
03/09:30pm 26.3 25.8 21.5 75 3.2 E 26 30 14 16 1013.7 - 0.0
03/09:00pm 26.4 25.4 20.5 70 3.9 E 26 30 14 16 1013.5 1013.5 0.0

Other Formats:

Comma delimited format used in spreadsheet applications
http://www.bom.gov.au/fwo/IDD60801/IDD60801.94135.axf

JavaScript Object Notation format (JSON) in row-major order
http://www.bom.gov.au/fwo/IDD60801/IDD60801.94135.json